createdAt,value
2022-10-25T00:01:47.059Z,100665.01
2022-10-25T00:04:16.251Z,100662.98
2022-10-25T00:06:44.015Z,100663.09
2022-10-25T00:09:11.880Z,100666.30
2022-10-25T00:11:39.711Z,100666.91
2022-10-25T00:14:07.933Z,100663.20
2022-10-25T00:16:38.234Z,100663.02
2022-10-25T00:19:06.229Z,100664.73
2022-10-25T00:21:34.038Z,100662.75
2022-10-25T00:24:01.869Z,100658.21
2022-10-25T00:26:29.774Z,100662.20
2022-10-25T00:28:57.526Z,100666.44
2022-10-25T00:31:25.292Z,100663.76
2022-10-25T00:33:53.334Z,100664.67
2022-10-25T00:36:26.485Z,100660.48
2022-10-25T00:38:57.358Z,100660.45
2022-10-25T00:41:28.517Z,100660.13
2022-10-25T00:44:35.102Z,100658.27
2022-10-25T00:47:24.755Z,100662.98
2022-10-25T00:50:05.672Z,100666.77
2022-10-25T00:52:37.180Z,100669.90
2022-10-25T00:55:07.893Z,100664.40
2022-10-25T00:57:47.067Z,100662.61
2022-10-25T01:00:15.874Z,100663.27
2022-10-25T01:02:45.167Z,100662.46
2022-10-25T01:05:13.508Z,100660.35
2022-10-25T01:07:41.187Z,100661.02
2022-10-25T01:10:09.182Z,100661.56
2022-10-25T01:12:36.908Z,100657.75
2022-10-25T01:15:05.629Z,100650.58
2022-10-25T01:17:38.105Z,100647.86
2022-10-25T01:20:15.256Z,100648.27
2022-10-25T01:22:56.452Z,100646.36
2022-10-25T01:25:42.837Z,100645.81
2022-10-25T01:28:48.423Z,100648.29
2022-10-25T01:31:54.403Z,100650.17
2022-10-25T01:34:38.485Z,100644.25
2022-10-25T01:37:22.144Z,100644.52
2022-10-25T01:40:23.435Z,100644.30
2022-10-25T01:43:03.201Z,100647.13
2022-10-25T01:45:39.766Z,100649.63
2022-10-25T01:48:13.440Z,100650.77
2022-10-25T01:50:45.385Z,100654.17
2022-10-25T01:53:13.766Z,100650.64
2022-10-25T01:55:57.092Z,100651.47
2022-10-25T01:58:43.410Z,100654.80
2022-10-25T02:02:05.222Z,100657.80
2022-10-25T02:04:39.476Z,100661.21
2022-10-25T02:07:22.166Z,100664.33
2022-10-25T02:12:58.661Z,100665.12
2022-10-25T02:15:39.824Z,100661.98
2022-10-25T02:18:16.166Z,100659.02
2022-10-25T02:20:47.135Z,100657.19
2022-10-25T02:23:18.243Z,100662.92
2022-10-25T02:25:48.308Z,100666.05
2022-10-25T02:28:19.280Z,100668.00
2022-10-25T02:30:48.347Z,100664.26
2022-10-25T02:33:16.173Z,100656.98
2022-10-25T02:35:43.993Z,100653.05
2022-10-25T02:38:11.975Z,100649.95
2022-10-25T02:40:39.791Z,100648.77
2022-10-25T02:43:07.507Z,100645.52
2022-10-25T02:45:35.206Z,100648.27
2022-10-25T02:48:02.900Z,100648.89
2022-10-25T02:50:30.613Z,100650.07
2022-10-25T02:52:58.499Z,100654.67
2022-10-25T02:55:26.197Z,100655.48
2022-10-25T02:57:53.937Z,100661.89
2022-10-25T03:00:22.302Z,100663.23
2022-10-25T03:02:50.388Z,100659.02
2022-10-25T03:05:18.431Z,100655.60
2022-10-25T03:07:46.237Z,100650.60
2022-10-25T03:10:14.083Z,100654.02
2022-10-25T03:12:41.900Z,100657.20
2022-10-25T03:15:10.125Z,100661.52
2022-10-25T03:17:41.595Z,100660.50
2022-10-25T03:20:09.782Z,100660.20
2022-10-25T03:22:37.567Z,100659.91
2022-10-25T03:25:05.880Z,100651.18
2022-10-25T03:27:33.675Z,100651.52
2022-10-25T03:30:01.503Z,100651.55
2022-10-25T03:32:29.489Z,100653.74
2022-10-25T03:34:57.234Z,100654.20
2022-10-25T03:37:24.967Z,100658.85
2022-10-25T03:39:54.241Z,100659.55
2022-10-25T03:42:22.170Z,100652.98
2022-10-25T03:44:50.224Z,100656.79
2022-10-25T03:47:18.912Z,100653.84
2022-10-25T03:49:46.682Z,100656.22
2022-10-25T03:52:14.389Z,100653.41
2022-10-25T03:54:42.554Z,100655.84
2022-10-25T03:57:10.748Z,100656.23
2022-10-25T03:59:39.003Z,100657.30
2022-10-25T04:02:06.803Z,100659.95
2022-10-25T04:04:34.730Z,100656.61
2022-10-25T04:07:02.651Z,100657.25
2022-10-25T04:09:30.644Z,100655.02
2022-10-25T04:11:58.643Z,100659.19
2022-10-25T04:14:27.050Z,100660.55
2022-10-25T04:16:56.037Z,100661.58
2022-10-25T04:19:23.883Z,100663.20
2022-10-25T04:21:51.717Z,100657.77
2022-10-25T04:24:19.677Z,100657.96
2022-10-25T04:26:47.497Z,100650.73
2022-10-25T04:29:17.415Z,100649.58
2022-10-25T04:31:45.117Z,100645.84
2022-10-25T04:34:12.865Z,100653.27
2022-10-25T04:36:40.679Z,100655.02
2022-10-25T04:39:08.596Z,100656.69
2022-10-25T04:41:36.473Z,100658.19
2022-10-25T04:44:04.419Z,100651.34
2022-10-25T04:46:32.609Z,100654.15
2022-10-25T04:49:00.417Z,100652.39
2022-10-25T04:51:28.458Z,100651.45
2022-10-25T04:53:57.087Z,100658.15
2022-10-25T04:56:25.206Z,100658.09
2022-10-25T04:58:52.972Z,100651.88
2022-10-25T05:01:20.808Z,100651.35
2022-10-25T05:03:49.367Z,100646.56
2022-10-25T05:06:22.847Z,100656.84
2022-10-25T05:08:55.887Z,100660.49
2022-10-25T05:11:26.665Z,100666.56
2022-10-25T05:13:55.554Z,100666.13
2022-10-25T05:16:25.930Z,100670.84
2022-10-25T05:18:56.700Z,100670.11
2022-10-25T05:21:30.818Z,100674.42
2022-10-25T05:24:02.780Z,100682.66
2022-10-25T05:26:32.003Z,100681.24
2022-10-25T05:29:00.912Z,100679.66
2022-10-25T05:31:31.442Z,100682.29
2022-10-25T05:34:00.977Z,100682.11
2022-10-25T05:36:29.756Z,100678.60
2022-10-25T05:38:58.342Z,100682.04
2022-10-25T05:41:27.024Z,100686.63
2022-10-25T05:43:55.501Z,100684.54
2022-10-25T05:46:24.384Z,100683.77
2022-10-25T05:48:53.629Z,100686.79
2022-10-25T05:51:34.712Z,100690.09
2022-10-25T05:54:07.788Z,100691.77
2022-10-25T05:56:36.814Z,100693.66
2022-10-25T05:59:09.087Z,100696.10
2022-10-25T06:01:40.028Z,100701.60
2022-10-25T06:04:08.753Z,100702.69
2022-10-25T06:06:39.166Z,100705.31
2022-10-25T06:09:07.390Z,100709.27
2022-10-25T06:11:35.570Z,100707.11
2022-10-25T06:14:05.848Z,100711.69
2022-10-25T06:16:34.544Z,100720.14
2022-10-25T06:19:02.526Z,100719.65
2022-10-25T06:21:31.526Z,100721.77
2022-10-25T06:24:00.163Z,100726.59
2022-10-25T06:26:30.232Z,100730.23
2022-10-25T06:29:01.258Z,100732.97
2022-10-25T06:31:30.682Z,100731.66
2022-10-25T06:34:00.818Z,100735.40
2022-10-25T06:36:31.338Z,100739.95
2022-10-25T06:39:05.361Z,100738.63
2022-10-25T06:41:38.894Z,100741.49
2022-10-25T06:44:08.972Z,100746.03
2022-10-25T06:49:28.027Z,100754.54
2022-10-25T06:51:55.950Z,100753.55
2022-10-25T06:54:25.641Z,100753.23
2022-10-25T06:56:53.943Z,100758.12
2022-10-25T06:59:21.865Z,100761.74
2022-10-25T07:01:50.297Z,100764.83
2022-10-25T07:04:20.671Z,100766.85
2022-10-25T07:06:51.503Z,100770.42
2022-10-25T07:09:22.614Z,100774.98
2022-10-25T07:11:50.890Z,100770.69
2022-10-25T07:14:18.957Z,100776.64
2022-10-25T07:16:47.051Z,100776.92
2022-10-25T07:19:14.799Z,100776.63
2022-10-25T07:21:43.524Z,100776.64
2022-10-25T07:24:11.443Z,100779.13
2022-10-25T07:26:40.521Z,100777.14
2022-10-25T07:29:08.792Z,100779.65
2022-10-25T07:31:41.318Z,100779.45
2022-10-25T07:34:11.733Z,100780.80
2022-10-25T07:36:39.879Z,100780.17
2022-10-25T07:39:07.871Z,100785.02
2022-10-25T07:41:35.977Z,100788.21
2022-10-25T07:44:04.031Z,100785.54
2022-10-25T07:46:32.465Z,100787.46
2022-10-25T07:49:00.343Z,100783.98
2022-10-25T07:51:28.322Z,100783.18
2022-10-25T07:53:56.317Z,100778.66
2022-10-25T07:56:24.302Z,100775.65
2022-10-25T07:58:52.883Z,100784.65
2022-10-25T08:01:23.221Z,100784.85
2022-10-25T08:03:52.598Z,100784.86
2022-10-25T08:06:22.802Z,100784.83
2022-10-25T08:08:50.802Z,100784.01
2022-10-25T08:11:19.419Z,100789.05
2022-10-25T08:13:49.915Z,100792.80
2022-10-25T08:16:18.621Z,100793.89
2022-10-25T08:18:47.047Z,100794.60
2022-10-25T08:21:15.730Z,100794.65
2022-10-25T08:23:46.025Z,100795.73
2022-10-25T08:26:13.889Z,100799.17
2022-10-25T08:28:41.626Z,100800.07
2022-10-25T08:31:10.415Z,100795.56
2022-10-25T08:33:39.945Z,100798.45
2022-10-25T08:36:08.738Z,100802.02
2022-10-25T08:38:36.775Z,100806.41
2022-10-25T08:41:14.430Z,100804.48
2022-10-25T08:44:28.423Z,100804.65
2022-10-25T08:47:11.534Z,100811.04
2022-10-25T08:50:02.932Z,100811.48
2022-10-25T08:52:38.196Z,100814.48
2022-10-25T08:55:15.205Z,100810.72
2022-10-25T08:57:47.163Z,100813.48
2022-10-25T09:00:22.976Z,100817.07
2022-10-25T09:02:54.554Z,100813.29
2022-10-25T09:05:33.307Z,100814.02
2022-10-25T09:08:23.298Z,100814.18
2022-10-25T09:11:13.217Z,100816.72
2022-10-25T09:13:57.378Z,100815.25
2022-10-25T09:16:42.422Z,100815.94
2022-10-25T09:19:31.483Z,100816.09
2022-10-25T09:22:10.531Z,100822.88
2022-10-25T09:24:56.908Z,100823.05
2022-10-25T09:27:36.089Z,100827.32
2022-10-25T09:30:11.853Z,100832.31
2022-10-25T09:32:48.202Z,100828.79
2022-10-25T09:35:46.990Z,100829.92
2022-10-25T09:38:30.419Z,100833.63
2022-10-25T09:41:05.362Z,100829.70
2022-10-25T09:43:42.288Z,100831.96
2022-10-25T09:46:22.256Z,100835.39
2022-10-25T09:49:07.130Z,100837.16
2022-10-25T09:51:44.098Z,100840.48
2022-10-25T09:54:18.428Z,100840.52
2022-10-25T09:56:46.119Z,100844.95
2022-10-25T09:59:15.653Z,100842.73
2022-10-25T10:01:43.578Z,100838.65
2022-10-25T10:04:36.525Z,100837.57
2022-10-25T10:07:26.536Z,100841.19
2022-10-25T10:09:58.310Z,100846.44
2022-10-25T10:12:36.769Z,100840.42
2022-10-25T10:15:35.082Z,100842.21
2022-10-25T10:18:25.549Z,100844.25
2022-10-25T10:20:57.186Z,100840.81
2022-10-25T10:23:27.721Z,100842.10
2022-10-25T10:25:55.954Z,100840.02
2022-10-25T10:28:23.737Z,100841.79
2022-10-25T10:30:59.177Z,100843.87
2022-10-25T10:33:33.114Z,100849.58
2022-10-25T10:36:27.450Z,100846.08
2022-10-25T10:39:13.779Z,100843.10
2022-10-25T10:42:01.051Z,100842.39
2022-10-25T10:44:34.303Z,100845.88
2022-10-25T10:47:20.030Z,100847.40
2022-10-25T10:49:48.294Z,100847.09
2022-10-25T10:52:40.027Z,100846.58
2022-10-25T10:55:39.428Z,100850.64
2022-10-25T10:58:20.743Z,100851.83
2022-10-25T11:01:02.496Z,100849.49
2022-10-25T11:03:59.231Z,100852.90
2022-10-25T11:06:33.577Z,100851.89
2022-10-25T11:09:13.095Z,100851.91
2022-10-25T11:11:42.285Z,100855.85
2022-10-25T11:14:16.003Z,100857.63
2022-10-25T11:17:22.458Z,100857.48
2022-10-25T11:20:02.823Z,100853.87
2022-10-25T11:22:43.240Z,100857.58
2022-10-25T11:25:25.896Z,100859.95
2022-10-25T11:27:58.181Z,100860.41
2022-10-25T11:30:38.009Z,100859.55
2022-10-25T11:33:14.808Z,100858.92
2022-10-25T11:36:23.847Z,100861.27
2022-10-25T11:39:09.934Z,100861.13
2022-10-25T11:41:52.235Z,100861.35
2022-10-25T11:44:36.577Z,100865.97
2022-10-25T11:47:31.852Z,100868.23
2022-10-25T11:50:22.855Z,100863.77
2022-10-25T11:53:08.496Z,100867.74
2022-10-25T11:55:45.203Z,100865.20
2022-10-25T11:59:01.066Z,100866.97
2022-10-25T12:01:41.382Z,100865.25
2022-10-25T12:04:37.824Z,100865.62
2022-10-25T12:07:18.593Z,100864.53
2022-10-25T12:09:52.882Z,100866.27
2022-10-25T12:12:26.531Z,100867.39
2022-10-25T12:15:00.749Z,100865.90
2022-10-25T12:17:35.199Z,100864.20
2022-10-25T12:20:07.643Z,100865.66
2022-10-25T12:22:45.245Z,100861.00
2022-10-25T12:25:28.896Z,100866.09
2022-10-25T12:28:06.766Z,100860.34
2022-10-25T12:30:35.796Z,100858.58
2022-10-25T12:33:15.488Z,100860.48
2022-10-25T12:35:50.675Z,100864.23
2022-10-25T12:38:31.447Z,100862.01
2022-10-25T12:41:10.262Z,100861.85
2022-10-25T12:43:54.022Z,100864.52
2022-10-25T12:46:45.751Z,100864.92
2022-10-25T12:49:52.367Z,100861.02
2022-10-25T12:52:29.265Z,100864.20
2022-10-25T12:55:23.223Z,100862.79
2022-10-25T12:58:29.932Z,100862.36
2022-10-25T13:01:29.474Z,100858.59
2022-10-25T13:04:30.717Z,100860.55
2022-10-25T13:07:03.873Z,100858.35
2022-10-25T13:09:34.237Z,100860.64
2022-10-25T13:12:32.606Z,100862.14
2022-10-25T13:15:07.255Z,100873.12
2022-10-25T13:17:41.358Z,100870.98
2022-10-25T13:20:23.773Z,100877.33
2022-10-25T13:22:52.421Z,100874.71
2022-10-25T13:25:32.980Z,100885.54
2022-10-25T13:28:15.967Z,100896.14
2022-10-25T13:30:44.638Z,100903.09
2022-10-25T13:33:16.772Z,100903.68
2022-10-25T13:35:45.235Z,100909.45
2022-10-25T13:38:34.290Z,100916.38
2022-10-25T13:41:19.570Z,100921.49
2022-10-25T13:44:05.285Z,100920.60
2022-10-25T13:46:41.517Z,100918.25
2022-10-25T13:49:32.241Z,100911.98
2022-10-25T13:52:21.914Z,100911.11
2022-10-25T13:54:54.110Z,100916.28
2022-10-25T13:57:51.863Z,100917.16
2022-10-25T14:00:39.593Z,100920.42
2022-10-25T14:03:14.932Z,100913.90
2022-10-25T14:05:55.009Z,100914.23
2022-10-25T14:08:27.680Z,100910.77
2022-10-25T14:11:00.472Z,100909.28
2022-10-25T14:13:33.919Z,100917.98
2022-10-25T14:16:05.352Z,100918.12
2022-10-25T14:18:36.606Z,100918.66
2022-10-25T14:21:05.749Z,100918.64
2022-10-25T14:23:35.444Z,100921.22
2022-10-25T14:26:06.403Z,100923.48
2022-10-25T14:28:36.325Z,100924.06
2022-10-25T14:31:12.240Z,100926.62
2022-10-25T14:33:49.507Z,100929.39
2022-10-25T14:36:37.816Z,100929.06
2022-10-25T14:39:24.284Z,100929.69
2022-10-25T14:42:01.649Z,100933.41
2022-10-25T14:44:45.811Z,100939.24
2022-10-25T14:47:31.495Z,100938.30
2022-10-25T14:50:00.529Z,100936.03
2022-10-25T14:52:31.227Z,100936.23
2022-10-25T14:55:08.009Z,100933.58
2022-10-25T14:57:37.334Z,100938.92
2022-10-25T15:00:06.505Z,100935.23
2022-10-25T15:02:39.983Z,100939.40
2022-10-25T15:05:18.811Z,100936.54
2022-10-25T15:07:49.486Z,100943.13
2022-10-25T15:10:36.097Z,100949.80
2022-10-25T15:13:23.528Z,100953.09
2022-10-25T15:15:52.186Z,100951.58
2022-10-25T15:18:37.401Z,100943.87
2022-10-25T15:21:12.979Z,100932.42
2022-10-25T15:23:43.788Z,100928.63
2022-10-25T15:26:27.523Z,100927.49
2022-10-25T15:28:58.678Z,100932.91
2022-10-25T15:31:33.331Z,100936.84
2022-10-25T15:34:07.177Z,100934.91
2022-10-25T15:36:36.103Z,100935.95
2022-10-25T15:39:25.437Z,100941.44
2022-10-25T15:41:54.194Z,100944.16
2022-10-25T15:44:23.389Z,100947.55
2022-10-25T15:46:55.812Z,100950.90
2022-10-25T15:49:24.135Z,100949.00
2022-10-25T15:51:52.912Z,100952.19
2022-10-25T15:54:23.441Z,100952.05
2022-10-25T15:56:52.148Z,100948.30
2022-10-25T15:59:20.858Z,100946.34
2022-10-25T16:01:55.498Z,100951.48
2022-10-25T16:04:25.462Z,100958.11
2022-10-25T16:06:54.024Z,100964.80
2022-10-25T16:09:24.788Z,100965.98
2022-10-25T16:11:55.257Z,100960.77
2022-10-25T16:14:28.978Z,100962.16
2022-10-25T16:16:59.961Z,100968.73
2022-10-25T16:19:31.736Z,100975.98
2022-10-25T16:22:01.681Z,100982.45
2022-10-25T16:24:31.114Z,100986.43
2022-10-25T16:27:01.948Z,100989.14
2022-10-25T16:29:30.741Z,100994.17
2022-10-25T16:31:58.957Z,100995.02
2022-10-25T16:34:26.966Z,100995.21
2022-10-25T16:36:57.083Z,100995.55
2022-10-25T16:39:29.179Z,101001.32
2022-10-25T16:41:58.495Z,101002.33
2022-10-25T16:44:26.960Z,101001.55
2022-10-25T16:46:55.781Z,101005.24
2022-10-25T16:49:32.927Z,101009.68
2022-10-25T16:52:03.048Z,101011.81
2022-10-25T16:54:31.443Z,101007.42
2022-10-25T16:57:04.578Z,101005.61
2022-10-25T16:59:34.617Z,101004.58
2022-10-25T17:02:04.321Z,101006.76
2022-10-25T17:04:32.737Z,101011.68
2022-10-25T17:07:05.210Z,101014.06
2022-10-25T17:09:33.472Z,101018.17
2022-10-25T17:12:02.297Z,101018.38
2022-10-25T17:14:30.946Z,101021.64
2022-10-25T17:17:02.379Z,101022.63
2022-10-25T17:19:33.402Z,101026.20
2022-10-25T17:22:01.618Z,101026.35
2022-10-25T17:24:33.398Z,101025.73
2022-10-25T17:27:03.196Z,101030.98
2022-10-25T17:29:32.272Z,101032.00
2022-10-25T17:32:01.085Z,101033.27
2022-10-25T17:34:32.135Z,101036.02
2022-10-25T17:37:02.403Z,101035.64
2022-10-25T17:39:30.808Z,101042.63
2022-10-25T17:41:59.091Z,101045.55
2022-10-25T17:44:28.019Z,101047.83
2022-10-25T17:47:03.000Z,101049.15
2022-10-25T17:49:34.763Z,101054.62
2022-10-25T17:52:07.563Z,101051.30
2022-10-25T17:54:39.057Z,101055.16
2022-10-25T17:57:12.110Z,101061.16
2022-10-25T17:59:43.198Z,101055.05
2022-10-25T18:02:14.683Z,101053.66
2022-10-25T18:05:02.280Z,101051.64
2022-10-25T18:07:39.154Z,101052.14
2022-10-25T18:10:09.030Z,101049.46
2022-10-25T18:12:37.981Z,101054.70
2022-10-25T18:15:07.248Z,101064.80
2022-10-25T18:17:36.416Z,101070.49
2022-10-25T18:20:08.018Z,101071.77
2022-10-25T18:22:38.480Z,101073.80
2022-10-25T18:25:09.025Z,101069.67
2022-10-25T18:27:39.591Z,101071.33
2022-10-25T18:30:13.249Z,101069.83
2022-10-25T18:32:53.108Z,101061.64
2022-10-25T18:35:22.816Z,101068.73
2022-10-25T18:37:54.091Z,101069.02
2022-10-25T18:40:25.109Z,101064.86
2022-10-25T18:42:53.765Z,101069.67
2022-10-25T18:45:22.078Z,101064.59
2022-10-25T18:47:54.998Z,101073.31
2022-10-25T18:50:26.070Z,101073.19
2022-10-25T18:52:55.932Z,101073.02
2022-10-25T18:55:26.800Z,101071.47
2022-10-25T18:57:56.295Z,101071.44
2022-10-25T19:00:28.061Z,101069.49
2022-10-25T19:03:00.029Z,101068.80
2022-10-25T19:05:30.220Z,101069.44
2022-10-25T19:07:58.628Z,101068.25
2022-10-25T19:10:29.477Z,101069.06
2022-10-25T19:12:59.947Z,101073.74
2022-10-25T19:15:29.182Z,101076.73
2022-10-25T19:17:58.626Z,101083.16
2022-10-25T19:20:27.450Z,101085.75
2022-10-25T19:22:58.912Z,101084.07
2022-10-25T19:25:30.958Z,101082.33
2022-10-25T19:28:00.825Z,101083.43
2022-10-25T19:30:32.220Z,101085.60
2022-10-25T19:33:05.028Z,101080.58
2022-10-25T19:35:34.625Z,101081.54
2022-10-25T19:38:03.192Z,101081.59
2022-10-25T19:40:32.699Z,101086.04
2022-10-25T19:43:01.180Z,101089.97
2022-10-25T19:45:30.451Z,101092.41
2022-10-25T19:47:59.301Z,101097.09
2022-10-25T19:50:28.957Z,101095.41
2022-10-25T19:52:56.925Z,101099.98
2022-10-25T19:55:25.275Z,101099.80
2022-10-25T19:57:53.730Z,101097.60
2022-10-25T20:00:22.347Z,101104.39
2022-10-25T20:02:50.861Z,101105.67
2022-10-25T20:13:57.733Z,101110.44
2022-10-25T20:16:27.002Z,101112.27
2022-10-25T20:18:55.856Z,101112.65
2022-10-25T20:21:25.783Z,101117.06
2022-10-25T20:23:55.961Z,101113.02
2022-10-25T20:26:38.704Z,101114.90
2022-10-25T20:29:17.022Z,101114.27
2022-10-25T20:31:50.635Z,101116.38
2022-10-25T20:34:21.316Z,101118.06
2022-10-25T20:36:49.632Z,101117.94
2022-10-25T20:39:18.374Z,101122.11
2022-10-25T20:41:46.931Z,101127.86
2022-10-25T20:44:14.913Z,101133.64
2022-10-25T20:46:46.669Z,101131.23
2022-10-25T20:49:15.189Z,101132.64
2022-10-25T20:51:43.479Z,101135.95
2022-10-25T20:54:11.527Z,101132.08
2022-10-25T20:56:39.889Z,101137.56
2022-10-25T20:59:09.333Z,101137.31
2022-10-25T21:01:37.494Z,101138.73
2022-10-25T21:04:05.703Z,101138.91
2022-10-25T21:06:33.986Z,101141.63
2022-10-25T21:09:02.196Z,101144.79
2022-10-25T21:11:30.644Z,101145.52
2022-10-25T21:13:58.583Z,101143.98
2022-10-25T21:16:26.547Z,101146.27
2022-10-25T21:18:54.418Z,101140.83
2022-10-25T21:21:22.915Z,101140.25
2022-10-25T21:23:56.235Z,101143.45
2022-10-25T21:26:24.270Z,101146.50
2022-10-25T21:28:52.241Z,101144.73
2022-10-25T21:31:20.186Z,101145.32
2022-10-25T21:33:50.130Z,101148.67
2022-10-25T21:36:20.954Z,101146.83
2022-10-25T21:38:48.897Z,101149.95
2022-10-25T21:41:26.764Z,101147.09
2022-10-25T21:43:55.292Z,101145.12
2022-10-25T21:46:25.151Z,101144.59
2022-10-25T21:48:53.661Z,101147.09
2022-10-25T21:51:24.388Z,101148.22
2022-10-25T21:53:53.732Z,101151.64
2022-10-25T21:56:31.115Z,101150.13
2022-10-25T21:59:00.271Z,101143.86
2022-10-25T22:01:29.997Z,101148.34
2022-10-25T22:03:58.159Z,101145.91
2022-10-25T22:06:27.411Z,101150.96
2022-10-25T22:08:56.379Z,101147.42
2022-10-25T22:11:26.810Z,101151.18
2022-10-25T22:13:57.248Z,101154.27
2022-10-25T22:16:25.488Z,101154.17
2022-10-25T22:18:57.741Z,101154.61
2022-10-25T22:21:28.127Z,101159.92
2022-10-25T22:23:56.464Z,101154.67
2022-10-25T22:26:24.501Z,101157.70
2022-10-25T22:28:54.631Z,101153.59
2022-10-25T22:31:23.359Z,101154.99
2022-10-25T22:33:56.435Z,101152.13
2022-10-25T22:36:27.153Z,101149.45
2022-10-25T22:38:55.067Z,101150.27
2022-10-25T22:41:25.639Z,101159.13
2022-10-25T22:43:54.110Z,101161.92
2022-10-25T22:46:30.801Z,101163.31
2022-10-25T22:49:00.344Z,101164.93
2022-10-25T22:51:28.963Z,101167.89
2022-10-25T22:53:57.178Z,101172.63
2022-10-25T22:56:29.961Z,101176.90
2022-10-25T22:59:00.837Z,101175.59
2022-10-25T23:01:31.023Z,101180.05
2022-10-25T23:04:00.469Z,101182.66
2022-10-25T23:06:33.049Z,101185.39
2022-10-25T23:09:03.807Z,101181.40
2022-10-25T23:11:34.767Z,101182.70
2022-10-25T23:14:03.350Z,101183.33
2022-10-25T23:16:31.547Z,101183.80
2022-10-25T23:19:00.159Z,101185.40
2022-10-25T23:21:33.512Z,101181.92
2022-10-25T23:24:01.472Z,101181.98
2022-10-25T23:26:32.595Z,101183.23
2022-10-25T23:29:01.090Z,101181.16
2022-10-25T23:31:32.408Z,101181.13
2022-10-25T23:34:00.928Z,101185.34
2022-10-25T23:36:37.418Z,101180.50
2022-10-25T23:39:08.188Z,101182.90
2022-10-25T23:41:36.664Z,101183.74
2022-10-25T23:44:04.682Z,101184.90
2022-10-25T23:46:32.590Z,101185.56
2022-10-25T23:49:00.603Z,101183.50
2022-10-25T23:51:28.668Z,101182.69
2022-10-25T23:53:56.462Z,101185.84
2022-10-25T23:56:24.367Z,101191.98
2022-10-25T23:58:54.587Z,101196.80
